Moyer Aviation Incorporated

Pocono Mountains Airport

188 Airport Rd. Tobyhanna, PA 18466 

P: 570-839-7161
800-321-5890
F: 570-839-7162

Weather

Weather

Pocono Weather

KMPO 190053Z AUTO 28006KT 10SM CLR M09/M13 A2992 RMK AO2 SLP172 T10941133

Allentown Weather

KABE 190051Z 26005KT 10SM CLR M03/M12 A3005 RMK AO2 SLP181 T10331122

Wilkes-Barre Weather

KAVP 190054Z 00000KT 8SM CLR M08/M12 A3001 RMK AO2 SLP178 T10781122


* required field

Contact Us